sensor_id;sensor_type;location;lat;lon;timestamp;temperature;humidity
79244;SHT31;68672;42.676;23.356;2023-04-30T00:02:01;11.91;65.70
79244;SHT31;68672;42.676;23.356;2023-04-30T00:04:26;11.88;65.82
79244;SHT31;68672;42.676;23.356;2023-04-30T00:06:52;11.84;65.78
79244;SHT31;68672;42.676;23.356;2023-04-30T00:09:17;11.80;65.93
79244;SHT31;68672;42.676;23.356;2023-04-30T00:11:43;11.78;65.89
79244;SHT31;68672;42.676;23.356;2023-04-30T00:14:09;11.77;65.80
79244;SHT31;68672;42.676;23.356;2023-04-30T00:16:34;11.75;65.85
79244;SHT31;68672;42.676;23.356;2023-04-30T00:19:03;11.71;65.82
79244;SHT31;68672;42.676;23.356;2023-04-30T00:21:28;11.73;65.74
79244;SHT31;68672;42.676;23.356;2023-04-30T00:23:54;11.70;65.81
79244;SHT31;68672;42.676;23.356;2023-04-30T00:26:20;11.67;65.68
79244;SHT31;68672;42.676;23.356;2023-04-30T00:28:45;11.69;65.33
79244;SHT31;68672;42.676;23.356;2023-04-30T00:31:10;11.71;65.33
79244;SHT31;68672;42.676;23.356;2023-04-30T00:33:36;11.70;65.70
79244;SHT31;68672;42.676;23.356;2023-04-30T00:36:06;11.66;65.86
79244;SHT31;68672;42.676;23.356;2023-04-30T00:38:35;11.62;65.91
79244;SHT31;68672;42.676;23.356;2023-04-30T00:41:01;11.52;65.99
79244;SHT31;68672;42.676;23.356;2023-04-30T00:43:26;11.46;66.09
79244;SHT31;68672;42.676;23.356;2023-04-30T00:45:52;11.43;66.02
79244;SHT31;68672;42.676;23.356;2023-04-30T00:48:17;11.42;65.91
79244;SHT31;68672;42.676;23.356;2023-04-30T00:50:43;11.40;65.92
79244;SHT31;68672;42.676;23.356;2023-04-30T00:53:12;11.37;65.94
79244;SHT31;68672;42.676;23.356;2023-04-30T00:55:42;11.37;65.99
79244;SHT31;68672;42.676;23.356;2023-04-30T00:58:08;11.36;66.13
79244;SHT31;68672;42.676;23.356;2023-04-30T01:00:36;11.34;66.24
79244;SHT31;68672;42.676;23.356;2023-04-30T01:03:02;11.33;66.18
79244;SHT31;68672;42.676;23.356;2023-04-30T01:05:28;11.29;66.12
79244;SHT31;68672;42.676;23.356;2023-04-30T01:07:54;11.26;66.21
79244;SHT31;68672;42.676;23.356;2023-04-30T01:10:22;11.23;66.31
79244;SHT31;68672;42.676;23.356;2023-04-30T01:13:16;11.16;66.70
79244;SHT31;68672;42.676;23.356;2023-04-30T01:16:00;11.11;66.73
79244;SHT31;68672;42.676;23.356;2023-04-30T01:18:40;11.06;66.68
79244;SHT31;68672;42.676;23.356;2023-04-30T01:21:13;11.02;66.72
79244;SHT31;68672;42.676;23.356;2023-04-30T01:24:05;10.99;66.77
79244;SHT31;68672;42.676;23.356;2023-04-30T01:27:12;10.92;66.98
79244;SHT31;68672;42.676;23.356;2023-04-30T01:29:42;10.91;66.99
79244;SHT31;68672;42.676;23.356;2023-04-30T01:32:09;10.89;67.12
79244;SHT31;68672;42.676;23.356;2023-04-30T01:34:35;10.86;67.25
79244;SHT31;68672;42.676;23.356;2023-04-30T01:40:12;10.79;67.44
79244;SHT31;68672;42.676;23.356;2023-04-30T01:43:00;10.82;67.44
79244;SHT31;68672;42.676;23.356;2023-04-30T01:48:47;10.78;67.85
79244;SHT31;68672;42.676;23.356;2023-04-30T01:51:22;10.74;67.78
79244;SHT31;68672;42.676;23.356;2023-04-30T01:53:49;10.74;67.75
79244;SHT31;68672;42.676;23.356;2023-04-30T01:56:22;10.76;67.78
79244;SHT31;68672;42.676;23.356;2023-04-30T01:58:51;10.76;67.81
79244;SHT31;68672;42.676;23.356;2023-04-30T02:01:28;10.75;67.96
79244;SHT31;68672;42.676;23.356;2023-04-30T02:03:53;10.69;68.08
79244;SHT31;68672;42.676;23.356;2023-04-30T02:06:19;10.65;68.31
79244;SHT31;68672;42.676;23.356;2023-04-30T02:08:44;10.61;68.52
79244;SHT31;68672;42.676;23.356;2023-04-30T02:11:10;10.64;68.41
79244;SHT31;68672;42.676;23.356;2023-04-30T02:13:41;10.63;68.40
79244;SHT31;68672;42.676;23.356;2023-04-30T02:16:06;10.64;68.37
79244;SHT31;68672;42.676;23.356;2023-04-30T02:18:32;10.63;68.49
79244;SHT31;68672;42.676;23.356;2023-04-30T02:21:00;10.55;68.62
79244;SHT31;68672;42.676;23.356;2023-04-30T02:23:25;10.57;68.79
79244;SHT31;68672;42.676;23.356;2023-04-30T02:25:51;10.55;68.76
79244;SHT31;68672;42.676;23.356;2023-04-30T02:28:16;10.48;68.84
79244;SHT31;68672;42.676;23.356;2023-04-30T02:30:42;10.50;68.91
79244;SHT31;68672;42.676;23.356;2023-04-30T02:33:07;10.47;69.09
79244;SHT31;68672;42.676;23.356;2023-04-30T02:35:36;10.47;69.00
79244;SHT31;68672;42.676;23.356;2023-04-30T02:38:02;10.45;69.00
79244;SHT31;68672;42.676;23.356;2023-04-30T02:40:30;10.48;68.80
79244;SHT31;68672;42.676;23.356;2023-04-30T02:42:55;10.53;68.77
79244;SHT31;68672;42.676;23.356;2023-04-30T02:45:21;10.54;68.73
79244;SHT31;68672;42.676;23.356;2023-04-30T02:47:46;10.57;68.71
79244;SHT31;68672;42.676;23.356;2023-04-30T02:50:13;10.58;68.73
79244;SHT31;68672;42.676;23.356;2023-04-30T02:52:38;10.60;68.94
79244;SHT31;68672;42.676;23.356;2023-04-30T02:55:04;10.64;69.13
79244;SHT31;68672;42.676;23.356;2023-04-30T02:57:30;10.64;69.28
79244;SHT31;68672;42.676;23.356;2023-04-30T02:59:55;10.67;69.10
79244;SHT31;68672;42.676;23.356;2023-04-30T03:02:21;10.69;68.95
79244;SHT31;68672;42.676;23.356;2023-04-30T03:04:48;10.67;69.22
79244;SHT31;68672;42.676;23.356;2023-04-30T03:07:14;10.74;68.97
79244;SHT31;68672;42.676;23.356;2023-04-30T03:09:39;10.81;68.81
79244;SHT31;68672;42.676;23.356;2023-04-30T03:12:05;10.85;68.47
79244;SHT31;68672;42.676;23.356;2023-04-30T03:14:30;10.89;68.30
79244;SHT31;68672;42.676;23.356;2023-04-30T03:17:01;10.96;68.22
79244;SHT31;68672;42.676;23.356;2023-04-30T03:19:27;11.03;68.15
79244;SHT31;68672;42.676;23.356;2023-04-30T03:21:53;11.09;68.11
79244;SHT31;68672;42.676;23.356;2023-04-30T03:24:19;11.09;68.08
79244;SHT31;68672;42.676;23.356;2023-04-30T03:26:47;11.15;68.12
79244;SHT31;68672;42.676;23.356;2023-04-30T03:29:13;11.15;67.98
79244;SHT31;68672;42.676;23.356;2023-04-30T03:31:38;11.19;67.97
79244;SHT31;68672;42.676;23.356;2023-04-30T03:34:04;11.20;67.94
79244;SHT31;68672;42.676;23.356;2023-04-30T03:36:29;11.23;67.72
79244;SHT31;68672;42.676;23.356;2023-04-30T03:38:55;11.22;67.61
79244;SHT31;68672;42.676;23.356;2023-04-30T03:41:23;11.27;67.47
79244;SHT31;68672;42.676;23.356;2023-04-30T03:43:49;11.32;67.32
79244;SHT31;68672;42.676;23.356;2023-04-30T03:46:14;11.33;67.38
79244;SHT31;68672;42.676;23.356;2023-04-30T03:48:40;11.39;67.30
79244;SHT31;68672;42.676;23.356;2023-04-30T03:51:05;11.44;67.39
79244;SHT31;68672;42.676;23.356;2023-04-30T03:53:31;11.46;67.51
79244;SHT31;68672;42.676;23.356;2023-04-30T03:55:56;11.50;67.54
79244;SHT31;68672;42.676;23.356;2023-04-30T03:58:22;11.49;67.59
79244;SHT31;68672;42.676;23.356;2023-04-30T04:00:47;11.52;67.41
79244;SHT31;68672;42.676;23.356;2023-04-30T04:03:14;11.50;67.25
79244;SHT31;68672;42.676;23.356;2023-04-30T04:05:40;11.50;67.30
79244;SHT31;68672;42.676;23.356;2023-04-30T04:08:05;11.54;67.35
79244;SHT31;68672;42.676;23.356;2023-04-30T04:10:32;11.54;67.41
79244;SHT31;68672;42.676;23.356;2023-04-30T04:13:01;11.59;67.43
79244;SHT31;68672;42.676;23.356;2023-04-30T04:15:26;11.59;67.32
79244;SHT31;68672;42.676;23.356;2023-04-30T04:17:54;11.59;67.73
79244;SHT31;68672;42.676;23.356;2023-04-30T04:20:20;11.62;67.82
79244;SHT31;68672;42.676;23.356;2023-04-30T04:22:48;11.63;67.54
79244;SHT31;68672;42.676;23.356;2023-04-30T04:25:13;11.66;67.20
79244;SHT31;68672;42.676;23.356;2023-04-30T04:27:40;11.74;66.83
79244;SHT31;68672;42.676;23.356;2023-04-30T04:30:06;11.74;66.20
79244;SHT31;68672;42.676;23.356;2023-04-30T04:32:31;11.73;66.26
79244;SHT31;68672;42.676;23.356;2023-04-30T04:34:57;11.77;66.18
79244;SHT31;68672;42.676;23.356;2023-04-30T04:37:23;11.78;65.94
79244;SHT31;68672;42.676;23.356;2023-04-30T04:39:48;11.83;65.69
79244;SHT31;68672;42.676;23.356;2023-04-30T04:42:15;11.88;65.48
79244;SHT31;68672;42.676;23.356;2023-04-30T04:44:44;11.94;64.85
79244;SHT31;68672;42.676;23.356;2023-04-30T04:47:12;12.01;64.59
79244;SHT31;68672;42.676;23.356;2023-04-30T04:49:38;12.04;64.47
79244;SHT31;68672;42.676;23.356;2023-04-30T04:52:03;12.10;64.24
79244;SHT31;68672;42.676;23.356;2023-04-30T04:54:35;12.11;63.64
79244;SHT31;68672;42.676;23.356;2023-04-30T04:57:00;12.14;63.30
79244;SHT31;68672;42.676;23.356;2023-04-30T04:59:27;12.18;62.84
79244;SHT31;68672;42.676;23.356;2023-04-30T05:01:53;12.22;62.47
79244;SHT31;68672;42.676;23.356;2023-04-30T05:04:21;12.26;62.35
79244;SHT31;68672;42.676;23.356;2023-04-30T05:06:47;12.36;62.05
79244;SHT31;68672;42.676;23.356;2023-04-30T05:09:15;12.35;62.22
79244;SHT31;68672;42.676;23.356;2023-04-30T05:11:40;12.36;62.09
79244;SHT31;68672;42.676;23.356;2023-04-30T05:14:06;12.41;62.02
79244;SHT31;68672;42.676;23.356;2023-04-30T05:16:34;12.48;61.79
79244;SHT31;68672;42.676;23.356;2023-04-30T05:19:00;12.52;61.86
79244;SHT31;68672;42.676;23.356;2023-04-30T05:21:25;12.57;61.59
79244;SHT31;68672;42.676;23.356;2023-04-30T05:23:54;12.64;61.34
79244;SHT31;68672;42.676;23.356;2023-04-30T05:26:19;12.67;61.04
79244;SHT31;68672;42.676;23.356;2023-04-30T05:28:44;12.75;60.86
79244;SHT31;68672;42.676;23.356;2023-04-30T05:31:10;12.77;60.54
79244;SHT31;68672;42.676;23.356;2023-04-30T05:33:44;12.83;60.77
79244;SHT31;68672;42.676;23.356;2023-04-30T05:36:10;12.87;60.54
79244;SHT31;68672;42.676;23.356;2023-04-30T05:38:35;12.92;60.14
79244;SHT31;68672;42.676;23.356;2023-04-30T05:41:01;12.94;59.93
79244;SHT31;68672;42.676;23.356;2023-04-30T05:43:26;13.00;59.76
79244;SHT31;68672;42.676;23.356;2023-04-30T05:45:52;13.06;59.53
79244;SHT31;68672;42.676;23.356;2023-04-30T05:48:17;13.10;59.60
79244;SHT31;68672;42.676;23.356;2023-04-30T05:50:42;13.17;59.47
79244;SHT31;68672;42.676;23.356;2023-04-30T05:53:09;13.21;59.41
79244;SHT31;68672;42.676;23.356;2023-04-30T05:55:34;13.28;59.44
79244;SHT31;68672;42.676;23.356;2023-04-30T05:58:00;13.38;59.51
79244;SHT31;68672;42.676;23.356;2023-04-30T06:00:26;13.40;59.75
79244;SHT31;68672;42.676;23.356;2023-04-30T06:02:51;13.42;59.79
79244;SHT31;68672;42.676;23.356;2023-04-30T06:05:17;13.52;59.78
79244;SHT31;68672;42.676;23.356;2023-04-30T06:07:48;13.57;59.65
79244;SHT31;68672;42.676;23.356;2023-04-30T06:10:13;13.63;59.56
79244;SHT31;68672;42.676;23.356;2023-04-30T06:12:39;13.72;59.24
79244;SHT31;68672;42.676;23.356;2023-04-30T06:15:08;13.78;59.01
79244;SHT31;68672;42.676;23.356;2023-04-30T06:17:36;13.83;58.90
79244;SHT31;68672;42.676;23.356;2023-04-30T06:20:02;13.86;58.94
79244;SHT31;68672;42.676;23.356;2023-04-30T06:22:31;13.95;58.59
79244;SHT31;68672;42.676;23.356;2023-04-30T06:24:57;14.00;58.46
79244;SHT31;68672;42.676;23.356;2023-04-30T06:27:23;14.10;58.16
79244;SHT31;68672;42.676;23.356;2023-04-30T06:29:49;14.17;57.71
79244;SHT31;68672;42.676;23.356;2023-04-30T06:32:14;14.21;57.64
79244;SHT31;68672;42.676;23.356;2023-04-30T06:34:40;14.30;57.31
79244;SHT31;68672;42.676;23.356;2023-04-30T06:37:06;14.38;57.08
79244;SHT31;68672;42.676;23.356;2023-04-30T06:39:31;14.42;56.95
79244;SHT31;68672;42.676;23.356;2023-04-30T06:41:57;14.47;56.68
79244;SHT31;68672;42.676;23.356;2023-04-30T06:44:22;14.48;56.57
79244;SHT31;68672;42.676;23.356;2023-04-30T06:46:50;14.63;55.49
79244;SHT31;68672;42.676;23.356;2023-04-30T06:49:16;14.64;55.18
79244;SHT31;68672;42.676;23.356;2023-04-30T06:51:41;14.78;54.70
79244;SHT31;68672;42.676;23.356;2023-04-30T06:54:07;14.85;54.44
79244;SHT31;68672;42.676;23.356;2023-04-30T06:56:32;15.03;54.21
79244;SHT31;68672;42.676;23.356;2023-04-30T06:59:01;15.16;53.61
79244;SHT31;68672;42.676;23.356;2023-04-30T07:01:26;15.30;53.53
79244;SHT31;68672;42.676;23.356;2023-04-30T07:03:54;15.42;53.41
79244;SHT31;68672;42.676;23.356;2023-04-30T07:06:20;15.50;53.24
79244;SHT31;68672;42.676;23.356;2023-04-30T07:08:45;15.61;52.38
79244;SHT31;68672;42.676;23.356;2023-04-30T07:11:11;15.64;51.69
79244;SHT31;68672;42.676;23.356;2023-04-30T07:13:37;15.63;51.76
79244;SHT31;68672;42.676;23.356;2023-04-30T07:16:03;15.67;51.94
79244;SHT31;68672;42.676;23.356;2023-04-30T07:18:29;15.74;52.00
79244;SHT31;68672;42.676;23.356;2023-04-30T07:20:54;15.79;52.14
79244;SHT31;68672;42.676;23.356;2023-04-30T07:23:21;15.87;51.56
79244;SHT31;68672;42.676;23.356;2023-04-30T07:25:50;15.93;51.36
79244;SHT31;68672;42.676;23.356;2023-04-30T07:28:15;16.00;51.24
79244;SHT31;68672;42.676;23.356;2023-04-30T07:30:40;16.01;51.04
79244;SHT31;68672;42.676;23.356;2023-04-30T07:33:06;16.07;51.01
79244;SHT31;68672;42.676;23.356;2023-04-30T07:35:35;16.07;51.21
79244;SHT31;68672;42.676;23.356;2023-04-30T07:38:03;16.11;51.00
79244;SHT31;68672;42.676;23.356;2023-04-30T07:40:39;16.11;50.32
79244;SHT31;68672;42.676;23.356;2023-04-30T07:43:04;16.14;50.34
79244;SHT31;68672;42.676;23.356;2023-04-30T07:45:30;16.11;50.28
79244;SHT31;68672;42.676;23.356;2023-04-30T07:47:58;16.11;50.37
79244;SHT31;68672;42.676;23.356;2023-04-30T07:50:23;16.15;50.55
79244;SHT31;68672;42.676;23.356;2023-04-30T07:52:52;16.19;50.36
79244;SHT31;68672;42.676;23.356;2023-04-30T07:55:18;16.22;50.72
79244;SHT31;68672;42.676;23.356;2023-04-30T07:57:43;16.31;49.95
79244;SHT31;68672;42.676;23.356;2023-04-30T08:00:09;16.41;49.67
79244;SHT31;68672;42.676;23.356;2023-04-30T08:02:34;16.62;48.55
79244;SHT31;68672;42.676;23.356;2023-04-30T08:05:01;16.76;48.27
79244;SHT31;68672;42.676;23.356;2023-04-30T08:07:30;16.93;47.77
79244;SHT31;68672;42.676;23.356;2023-04-30T08:09:56;17.06;47.61
79244;SHT31;68672;42.676;23.356;2023-04-30T08:12:21;17.11;47.40
79244;SHT31;68672;42.676;23.356;2023-04-30T08:15:01;17.27;47.13
79244;SHT31;68672;42.676;23.356;2023-04-30T08:17:26;17.41;46.71
79244;SHT31;68672;42.676;23.356;2023-04-30T08:19:52;17.48;46.61
79244;SHT31;68672;42.676;23.356;2023-04-30T08:22:17;17.62;46.27
79244;SHT31;68672;42.676;23.356;2023-04-30T08:24:43;17.69;46.02
79244;SHT31;68672;42.676;23.356;2023-04-30T08:27:08;17.82;45.15
79244;SHT31;68672;42.676;23.356;2023-04-30T08:29:33;17.93;45.06
79244;SHT31;68672;42.676;23.356;2023-04-30T08:32:02;17.92;44.54
79244;SHT31;68672;42.676;23.356;2023-04-30T08:34:28;17.86;45.05
79244;SHT31;68672;42.676;23.356;2023-04-30T08:36:53;17.81;44.98
79244;SHT31;68672;42.676;23.356;2023-04-30T08:39:19;17.78;45.75
79244;SHT31;68672;42.676;23.356;2023-04-30T08:41:51;17.75;45.65
79244;SHT31;68672;42.676;23.356;2023-04-30T08:44:23;17.69;45.38
79244;SHT31;68672;42.676;23.356;2023-04-30T08:46:55;17.67;45.42
79244;SHT31;68672;42.676;23.356;2023-04-30T08:49:23;17.68;45.61
79244;SHT31;68672;42.676;23.356;2023-04-30T08:51:50;17.79;45.28
79244;SHT31;68672;42.676;23.356;2023-04-30T08:54:16;17.89;45.40
79244;SHT31;68672;42.676;23.356;2023-04-30T08:56:43;17.98;45.27
79244;SHT31;68672;42.676;23.356;2023-04-30T08:59:08;18.00;45.11
79244;SHT31;68672;42.676;23.356;2023-04-30T09:01:34;18.13;44.17
79244;SHT31;68672;42.676;23.356;2023-04-30T09:04:02;18.30;43.91
79244;SHT31;68672;42.676;23.356;2023-04-30T09:06:27;18.48;43.84
79244;SHT31;68672;42.676;23.356;2023-04-30T09:08:53;18.61;43.50
79244;SHT31;68672;42.676;23.356;2023-04-30T09:13:47;18.79;42.21
79244;SHT31;68672;42.676;23.356;2023-04-30T09:16:13;18.89;42.66
79244;SHT31;68672;42.676;23.356;2023-04-30T09:18:39;19.01;41.45
79244;SHT31;68672;42.676;23.356;2023-04-30T09:21:05;19.12;40.96
79244;SHT31;68672;42.676;23.356;2023-04-30T09:23:34;19.20;41.17
79244;SHT31;68672;42.676;23.356;2023-04-30T09:25:59;19.33;40.60
79244;SHT31;68672;42.676;23.356;2023-04-30T09:28:25;19.50;40.75
79244;SHT31;68672;42.676;23.356;2023-04-30T09:30:55;19.74;40.49
79244;SHT31;68672;42.676;23.356;2023-04-30T09:33:21;20.00;39.79
79244;SHT31;68672;42.676;23.356;2023-04-30T09:35:46;20.15;38.81
79244;SHT31;68672;42.676;23.356;2023-04-30T09:38:33;20.14;38.99
79244;SHT31;68672;42.676;23.356;2023-04-30T09:40:59;20.29;38.65
79244;SHT31;68672;42.676;23.356;2023-04-30T09:43:26;20.38;38.42
79244;SHT31;68672;42.676;23.356;2023-04-30T09:45:51;20.41;38.36
79244;SHT31;68672;42.676;23.356;2023-04-30T09:48:21;20.44;38.72
79244;SHT31;68672;42.676;23.356;2023-04-30T09:50:48;20.51;38.87
79244;SHT31;68672;42.676;23.356;2023-04-30T09:53:14;20.57;38.48
79244;SHT31;68672;42.676;23.356;2023-04-30T09:55:44;20.65;38.32
79244;SHT31;68672;42.676;23.356;2023-04-30T09:58:12;20.73;38.71
79244;SHT31;68672;42.676;23.356;2023-04-30T10:00:38;20.77;38.16
79244;SHT31;68672;42.676;23.356;2023-04-30T10:03:22;21.00;37.99
79244;SHT31;68672;42.676;23.356;2023-04-30T10:05:51;21.23;37.74
79244;SHT31;68672;42.676;23.356;2023-04-30T10:10:50;21.75;36.56
79244;SHT31;68672;42.676;23.356;2023-04-30T10:13:22;21.99;35.24
79244;SHT31;68672;42.676;23.356;2023-04-30T10:15:53;22.13;34.99
79244;SHT31;68672;42.676;23.356;2023-04-30T10:18:28;22.23;35.59
79244;SHT31;68672;42.676;23.356;2023-04-30T10:20:56;22.32;35.98
79244;SHT31;68672;42.676;23.356;2023-04-30T10:23:21;22.28;35.32
79244;SHT31;68672;42.676;23.356;2023-04-30T10:25:49;22.08;34.56
79244;SHT31;68672;42.676;23.356;2023-04-30T10:28:15;21.66;35.23
79244;SHT31;68672;42.676;23.356;2023-04-30T10:30:41;21.20;36.59
79244;SHT31;68672;42.676;23.356;2023-04-30T10:33:33;20.76;38.17
79244;SHT31;68672;42.676;23.356;2023-04-30T10:36:06;20.17;40.73
79244;SHT31;68672;42.676;23.356;2023-04-30T10:38:35;19.55;42.97
79244;SHT31;68672;42.676;23.356;2023-04-30T10:41:05;19.04;44.82
79244;SHT31;68672;42.676;23.356;2023-04-30T10:43:31;18.67;47.21
79244;SHT31;68672;42.676;23.356;2023-04-30T10:45:57;18.29;49.58
79244;SHT31;68672;42.676;23.356;2023-04-30T10:48:23;17.92;47.08
79244;SHT31;68672;42.676;23.356;2023-04-30T10:51:00;18.02;49.44
79244;SHT31;68672;42.676;23.356;2023-04-30T10:53:29;18.23;53.93
79244;SHT31;68672;42.676;23.356;2023-04-30T10:56:04;18.46;53.38
79244;SHT31;68672;42.676;23.356;2023-04-30T10:58:39;18.75;51.77
79244;SHT31;68672;42.676;23.356;2023-04-30T11:01:15;19.16;50.95
79244;SHT31;68672;42.676;23.356;2023-04-30T11:06:48;20.39;49.25
79244;SHT31;68672;42.676;23.356;2023-04-30T11:09:15;20.82;45.05
79244;SHT31;68672;42.676;23.356;2023-04-30T11:11:43;21.00;45.12
79244;SHT31;68672;42.676;23.356;2023-04-30T11:14:10;21.44;46.31
79244;SHT31;68672;42.676;23.356;2023-04-30T11:16:36;21.62;44.67
79244;SHT31;68672;42.676;23.356;2023-04-30T11:19:21;21.82;41.74
79244;SHT31;68672;42.676;23.356;2023-04-30T11:24:50;21.85;40.16
79244;SHT31;68672;42.676;23.356;2023-04-30T11:27:28;21.89;38.25
79244;SHT31;68672;42.676;23.356;2023-04-30T11:29:55;22.02;38.40
79244;SHT31;68672;42.676;23.356;2023-04-30T11:32:22;21.91;38.08
79244;SHT31;68672;42.676;23.356;2023-04-30T11:34:51;21.82;38.41
79244;SHT31;68672;42.676;23.356;2023-04-30T11:37:28;21.77;39.18
79244;SHT31;68672;42.676;23.356;2023-04-30T11:39:55;21.72;40.65
79244;SHT31;68672;42.676;23.356;2023-04-30T11:42:21;21.65;39.60
79244;SHT31;68672;42.676;23.356;2023-04-30T11:44:47;21.69;39.81
79244;SHT31;68672;42.676;23.356;2023-04-30T11:47:13;22.03;40.11
79244;SHT31;68672;42.676;23.356;2023-04-30T11:49:39;22.22;40.40
79244;SHT31;68672;42.676;23.356;2023-04-30T11:52:08;22.22;41.12
79244;SHT31;68672;42.676;23.356;2023-04-30T11:54:37;22.23;41.66
79244;SHT31;68672;42.676;23.356;2023-04-30T11:57:03;22.33;42.36
79244;SHT31;68672;42.676;23.356;2023-04-30T11:59:39;22.42;41.81
79244;SHT31;68672;42.676;23.356;2023-04-30T12:02:08;22.47;40.88
79244;SHT31;68672;42.676;23.356;2023-04-30T12:04:35;22.78;40.66
79244;SHT31;68672;42.676;23.356;2023-04-30T12:07:01;22.81;40.45
79244;SHT31;68672;42.676;23.356;2023-04-30T12:09:28;22.78;40.68
79244;SHT31;68672;42.676;23.356;2023-04-30T12:11:56;22.80;40.78
79244;SHT31;68672;42.676;23.356;2023-04-30T12:14:25;22.78;40.51
79244;SHT31;68672;42.676;23.356;2023-04-30T12:16:51;22.61;40.59
79244;SHT31;68672;42.676;23.356;2023-04-30T12:19:21;22.46;40.41
79244;SHT31;68672;42.676;23.356;2023-04-30T12:21:49;22.17;41.66
79244;SHT31;68672;42.676;23.356;2023-04-30T12:24:17;21.88;42.63
79244;SHT31;68672;42.676;23.356;2023-04-30T12:26:43;21.59;43.52
79244;SHT31;68672;42.676;23.356;2023-04-30T12:29:10;21.26;44.11
79244;SHT31;68672;42.676;23.356;2023-04-30T12:31:38;20.97;45.09
79244;SHT31;68672;42.676;23.356;2023-04-30T12:34:05;20.65;46.45
79244;SHT31;68672;42.676;23.356;2023-04-30T12:36:32;20.34;48.75
79244;SHT31;68672;42.676;23.356;2023-04-30T12:39:15;20.01;48.89
79244;SHT31;68672;42.676;23.356;2023-04-30T12:41:42;19.71;49.56
79244;SHT31;68672;42.676;23.356;2023-04-30T12:44:22;19.35;49.37
79244;SHT31;68672;42.676;23.356;2023-04-30T12:46:50;19.20;50.13
79244;SHT31;68672;42.676;23.356;2023-04-30T12:49:32;19.08;49.74
79244;SHT31;68672;42.676;23.356;2023-04-30T12:52:00;19.02;50.11
79244;SHT31;68672;42.676;23.356;2023-04-30T12:54:30;19.30;49.63
79244;SHT31;68672;42.676;23.356;2023-04-30T12:59:30;19.43;49.92
79244;SHT31;68672;42.676;23.356;2023-04-30T13:02:13;19.70;46.72
79244;SHT31;68672;42.676;23.356;2023-04-30T13:04:40;22.01;42.82
79244;SHT31;68672;42.676;23.356;2023-04-30T13:07:05;21.92;42.95
79244;SHT31;68672;42.676;23.356;2023-04-30T13:09:35;22.98;40.66
79244;SHT31;68672;42.676;23.356;2023-04-30T13:12:01;22.67;39.90
79244;SHT31;68672;42.676;23.356;2023-04-30T13:14:27;22.13;41.56
79244;SHT31;68672;42.676;23.356;2023-04-30T13:16:52;21.61;43.02
79244;SHT31;68672;42.676;23.356;2023-04-30T13:19:18;21.24;44.02
79244;SHT31;68672;42.676;23.356;2023-04-30T13:21:47;20.83;44.39
79244;SHT31;68672;42.676;23.356;2023-04-30T13:24:12;20.45;45.16
79244;SHT31;68672;42.676;23.356;2023-04-30T13:26:38;20.18;46.05
79244;SHT31;68672;42.676;23.356;2023-04-30T13:29:04;20.10;45.74
79244;SHT31;68672;42.676;23.356;2023-04-30T13:31:30;20.73;44.27
79244;SHT31;68672;42.676;23.356;2023-04-30T13:33:58;20.52;44.46
79244;SHT31;68672;42.676;23.356;2023-04-30T13:36:23;20.41;44.33
79244;SHT31;68672;42.676;23.356;2023-04-30T13:38:49;20.22;43.95
79244;SHT31;68672;42.676;23.356;2023-04-30T13:41:14;20.11;44.39
79244;SHT31;68672;42.676;23.356;2023-04-30T13:43:40;19.98;44.87
79244;SHT31;68672;42.676;23.356;2023-04-30T13:46:07;19.87;44.80
79244;SHT31;68672;42.676;23.356;2023-04-30T13:48:32;19.74;44.96
79244;SHT31;68672;42.676;23.356;2023-04-30T13:50:59;19.63;44.99
79244;SHT31;68672;42.676;23.356;2023-04-30T13:53:24;19.55;45.52
79244;SHT31;68672;42.676;23.356;2023-04-30T13:55:50;19.47;44.86
79244;SHT31;68672;42.676;23.356;2023-04-30T13:58:15;19.47;45.34
79244;SHT31;68672;42.676;23.356;2023-04-30T14:00:41;19.70;44.51
79244;SHT31;68672;42.676;23.356;2023-04-30T14:03:06;20.35;43.28
79244;SHT31;68672;42.676;23.356;2023-04-30T14:05:32;20.97;41.68
79244;SHT31;68672;42.676;23.356;2023-04-30T14:07:57;21.31;41.55
79244;SHT31;68672;42.676;23.356;2023-04-30T14:10:23;21.79;40.24
79244;SHT31;68672;42.676;23.356;2023-04-30T14:12:48;22.35;39.05
79244;SHT31;68672;42.676;23.356;2023-04-30T14:15:14;22.81;36.42
79244;SHT31;68672;42.676;23.356;2023-04-30T14:17:46;23.23;35.37
79244;SHT31;68672;42.676;23.356;2023-04-30T14:20:15;23.86;35.04
79244;SHT31;68672;42.676;23.356;2023-04-30T14:22:40;23.90;35.10
79244;SHT31;68672;42.676;23.356;2023-04-30T14:25:06;23.72;35.04
79244;SHT31;68672;42.676;23.356;2023-04-30T14:27:36;23.39;35.81
79244;SHT31;68672;42.676;23.356;2023-04-30T14:30:04;23.08;36.48
79244;SHT31;68672;42.676;23.356;2023-04-30T14:32:30;22.77;36.68
79244;SHT31;68672;42.676;23.356;2023-04-30T14:34:55;22.49;37.23
79244;SHT31;68672;42.676;23.356;2023-04-30T14:37:21;22.24;37.85
79244;SHT31;68672;42.676;23.356;2023-04-30T14:39:49;22.20;37.85
79244;SHT31;68672;42.676;23.356;2023-04-30T14:42:15;22.12;38.08
79244;SHT31;68672;42.676;23.356;2023-04-30T14:44:40;22.12;38.24
79244;SHT31;68672;42.676;23.356;2023-04-30T14:47:06;22.23;38.16
79244;SHT31;68672;42.676;23.356;2023-04-30T14:49:32;22.32;39.63
79244;SHT31;68672;42.676;23.356;2023-04-30T14:52:00;22.29;41.27
79244;SHT31;68672;42.676;23.356;2023-04-30T14:54:25;22.13;42.22
79244;SHT31;68672;42.676;23.356;2023-04-30T14:56:51;21.92;42.47
79244;SHT31;68672;42.676;23.356;2023-04-30T14:59:19;21.82;42.64
79244;SHT31;68672;42.676;23.356;2023-04-30T15:01:44;21.66;42.82
79244;SHT31;68672;42.676;23.356;2023-04-30T15:04:10;21.51;42.80
79244;SHT31;68672;42.676;23.356;2023-04-30T15:06:35;21.27;43.55
79244;SHT31;68672;42.676;23.356;2023-04-30T15:09:01;21.06;43.88
79244;SHT31;68672;42.676;23.356;2023-04-30T15:11:27;20.87;44.29
79244;SHT31;68672;42.676;23.356;2023-04-30T15:13:52;20.73;44.06
79244;SHT31;68672;42.676;23.356;2023-04-30T15:16:19;20.62;44.23
79244;SHT31;68672;42.676;23.356;2023-04-30T15:18:45;20.49;44.42
79244;SHT31;68672;42.676;23.356;2023-04-30T15:21:11;20.38;44.68
79244;SHT31;68672;42.676;23.356;2023-04-30T15:23:36;20.34;43.83
79244;SHT31;68672;42.676;23.356;2023-04-30T15:26:02;20.11;44.14
79244;SHT31;68672;42.676;23.356;2023-04-30T15:28:30;19.93;44.79
79244;SHT31;68672;42.676;23.356;2023-04-30T15:30:57;19.77;45.19
79244;SHT31;68672;42.676;23.356;2023-04-30T15:33:24;19.70;45.47
79244;SHT31;68672;42.676;23.356;2023-04-30T15:36:00;19.60;45.53
79244;SHT31;68672;42.676;23.356;2023-04-30T15:38:26;19.50;45.66